AVV weather

Avalon Airport
Melbourne, Victoria, Australia

Public forecast

Using degrees Celsius for public forecast. Weather courtesy of forecast.io.

METAR (pilot weather report)

Retrieved 2017/10/24 06:30 UTC (0 seconds ago):

YMAV 240630Z AUTO 17010KT 9999 // OVC115 17/11 Q1014 RF00.0/000.0

TAF (pilot weather forecast)

Retrieved 2017/10/24 06:00 UTC (23 minutes ago):

TAF YMAV 240511Z 2406/2506 16010KT 9999 -SHRA SCT035 BKN100 FM241100 12008KT 9999 -SHRA FEW010 BKN030 FM241800 12008KT 9999 -SHRA BKN010 BECMG 2500/2502 12010KT 9999 -SHRA SCT012 SCT020 INTER 2410/2418 4000 SHRA BKN010 TEMPO 2418/2423 4000 SHRA BKN008 INTER 2423/2424 5000 SHRA BKN010